createdAt,value
2018-03-25T18:10:23.054Z,94007.80
2018-03-25T18:12:52.524Z,94008.63
2018-03-25T18:15:20.855Z,94008.83
2018-03-25T18:17:49.103Z,94012.45
2018-03-25T18:20:17.352Z,94014.02
2018-03-25T18:22:46.376Z,94013.25
2018-03-25T18:25:15.393Z,94015.34
2018-03-25T18:27:43.638Z,94016.81
2018-03-25T18:30:12.652Z,94023.17
2018-03-25T18:32:40.919Z,94020.64
2018-03-25T18:35:09.924Z,94027.30
2018-03-25T18:37:38.936Z,94027.27
2018-03-25T18:40:07.175Z,94035.23
2018-03-25T18:42:35.437Z,94033.15
2018-03-25T18:45:03.675Z,94044.00
2018-03-25T18:47:32.877Z,94043.34
2018-03-25T18:50:01.113Z,94045.67
2018-03-25T18:52:29.367Z,94047.36
2018-03-25T18:54:57.614Z,94057.84
2018-03-25T18:57:25.849Z,94063.95
2018-03-25T18:59:54.101Z,94065.99
2018-03-25T19:02:22.340Z,94069.90
2018-03-25T19:04:50.588Z,94068.63
2018-03-25T19:07:18.841Z,94076.21
2018-03-25T19:09:47.101Z,94072.30
2018-03-25T19:12:15.344Z,94077.30
2018-03-25T19:14:44.364Z,94070.75
2018-03-25T19:17:12.616Z,94063.20
2018-03-25T19:19:40.868Z,94067.81
2018-03-25T19:22:09.120Z,94062.85
2018-03-25T19:24:37.360Z,94063.56
2018-03-25T19:27:06.380Z,94073.75
2018-03-25T19:29:34.629Z,94074.30
2018-03-25T19:32:02.912Z,94070.08
2018-03-25T19:34:31.116Z,94069.94
2018-03-25T19:36:59.372Z,94067.73
2018-03-25T19:39:27.616Z,94079.41
2018-03-25T19:41:55.879Z,94084.70
2018-03-25T19:44:24.131Z,94089.73
2018-03-25T19:46:53.142Z,94091.20
2018-03-25T19:49:21.400Z,94086.53
2018-03-25T19:51:50.422Z,94086.70
2018-03-25T19:54:18.670Z,94089.89
2018-03-25T19:56:46.917Z,94097.38
2018-03-25T19:59:15.161Z,94091.23
2018-03-25T20:01:43.404Z,94095.16
2018-03-25T20:04:11.673Z,94095.80
2018-03-25T20:06:39.912Z,94092.33
2018-03-25T20:09:08.158Z,94093.61
2018-03-25T20:11:37.175Z,94096.83
2018-03-25T20:14:05.430Z,94099.70
2018-03-25T20:16:33.675Z,94105.97
2018-03-25T20:19:01.935Z,94108.31
2018-03-25T20:21:30.184Z,94109.72
2018-03-25T20:23:59.214Z,94106.83
2018-03-25T20:26:27.468Z,94106.66
2018-03-25T20:28:56.588Z,94108.77
2018-03-25T20:31:24.843Z,94106.48
2018-03-25T20:33:53.973Z,94109.94
2018-03-25T20:36:22.240Z,94111.20
2018-03-25T20:38:50.482Z,94117.48
2018-03-25T20:41:18.723Z,94111.69
2018-03-25T20:43:46.980Z,94110.88
2018-03-25T20:46:15.220Z,94112.58
2018-03-25T20:48:43.481Z,94117.30
2018-03-25T20:51:11.725Z,94122.02
2018-03-25T20:53:39.962Z,94118.80
2018-03-25T20:56:08.216Z,94116.53
2018-03-25T20:58:36.491Z,94118.99
2018-03-25T21:01:04.725Z,94128.03
2018-03-25T21:03:33.741Z,94125.40
2018-03-25T21:06:01.992Z,94124.61
2018-03-25T21:08:31.024Z,94125.51
2018-03-25T21:10:59.486Z,94125.83
2018-03-25T21:13:28.492Z,94132.64
2018-03-25T21:15:56.751Z,94128.78
2018-03-25T21:18:25.761Z,94126.17
2018-03-25T21:20:54.780Z,94140.27
2018-03-25T21:23:23.037Z,94136.34
2018-03-25T21:25:52.069Z,94140.44
2018-03-25T21:28:20.568Z,94137.92
2018-03-25T21:30:48.824Z,94138.27
2018-03-25T21:33:17.064Z,94133.91
2018-03-25T21:35:46.081Z,94141.39
2018-03-25T21:38:14.336Z,94141.63
2018-03-25T21:40:42.600Z,94141.56
2018-03-25T21:43:10.848Z,94150.31
2018-03-25T21:45:39.103Z,94148.20
2018-03-25T21:48:07.464Z,94152.28
2018-03-25T21:50:36.476Z,94156.41
2018-03-25T21:53:05.491Z,94160.61
2018-03-25T21:55:33.750Z,94160.70
2018-03-25T21:58:02.774Z,94162.28
2018-03-25T22:00:31.022Z,94164.14
2018-03-25T22:03:05.864Z,94167.67
2018-03-25T22:05:34.871Z,94159.78
2018-03-25T22:08:03.140Z,94166.16
2018-03-25T22:10:31.396Z,94163.20
2018-03-25T22:12:59.648Z,94165.08
2018-03-25T22:15:27.921Z,94172.08
2018-03-25T22:17:56.165Z,94173.17
2018-03-25T22:20:25.184Z,94176.09
2018-03-25T22:22:53.433Z,94181.33
2018-03-25T22:25:22.455Z,94182.41
2018-03-25T22:27:50.714Z,94178.70
2018-03-25T22:30:19.729Z,94183.16
2018-03-25T22:32:48.000Z,94182.55
2018-03-25T22:35:16.270Z,94181.89
2018-03-25T22:37:45.281Z,94183.58
2018-03-25T22:40:13.543Z,94181.41
2018-03-25T22:42:42.552Z,94188.91
2018-03-25T22:45:11.569Z,94188.23
2018-03-25T22:47:39.834Z,94193.21
2018-03-25T22:50:08.846Z,94186.61
2018-03-25T22:52:37.101Z,94189.95
2018-03-25T22:55:06.118Z,94185.67
2018-03-25T22:57:34.373Z,94192.58
2018-03-25T23:00:03.397Z,94196.53
2018-03-25T23:02:31.668Z,94198.30
2018-03-25T23:05:00.990Z,94203.13
2018-03-25T23:07:29.229Z,94208.50
2018-03-25T23:09:57.488Z,94209.46
2018-03-25T23:12:25.983Z,94211.56
2018-03-25T23:14:54.220Z,94217.74
2018-03-25T23:17:22.461Z,94213.78
2018-03-25T23:19:51.484Z,94212.14
2018-03-25T23:22:19.751Z,94211.48
2018-03-25T23:24:48.773Z,94215.41
2018-03-25T23:27:17.017Z,94211.15
2018-03-25T23:29:46.041Z,94215.83
2018-03-25T23:32:14.308Z,94213.69
2018-03-25T23:34:43.319Z,94213.19
2018-03-25T23:37:11.582Z,94213.94
2018-03-25T23:39:40.591Z,94222.55
2018-03-25T23:42:08.861Z,94216.22
2018-03-25T23:44:37.885Z,94219.41
2018-03-25T23:47:06.115Z,94217.61
2018-03-25T23:49:34.391Z,94215.05
2018-03-25T23:52:02.644Z,94216.73
2018-03-25T23:54:30.882Z,94218.41
2018-03-25T23:56:59.908Z,94214.49
2018-03-25T23:59:28.164Z,94215.73
